Time;durP1;ratioP1;P1;durP2;ratioP2;P2;SDS_P1;SDS_P2;PMS_P1;PMS_P2;Temp;Humidity;BMP_temperature;BMP_pressure;BME280_temperature;BME280_humidity;BME280_pressure;Samples;Min_cycle;Max_cycle;Signal;HPM_P1;HPM_P2
2021/01/05 00:02:21;;;;;;;46.30;15.60;;;;;;;;;;4777968;29;169545;-74
2021/01/05 00:04:48;;;;;;;30.23;13.90;;;;;;;;;;4780145;29;169775;-73
2021/01/05 00:07:15;;;;;;;43.30;15.63;;;;;;;;;;4780549;29;170464;-71
2021/01/05 00:09:41;;;;;;;21.00;12.43;;;;;;;;;;4779478;29;170618;-75
2021/01/05 00:12:11;;;;;;;20.47;12.47;;;;;;;;;;4779272;29;169225;-76
2021/01/05 00:14:41;;;;;;;23.63;13.50;;;;;;;;;;4790401;28;169291;-73
2021/01/05 00:17:08;;;;;;;33.33;14.27;;;;;;;;;;4764497;29;173076;-73
2021/01/05 00:19:35;;;;;;;21.37;12.57;;;;;;;;;;4779169;29;171802;-73
2021/01/05 00:22:02;;;;;;;37.80;13.73;;;;;;;;;;4766859;29;174137;-73
2021/01/05 00:24:29;;;;;;;21.43;12.33;;;;;;;;;;4776619;28;169211;-75
2021/01/05 00:26:56;;;;;;;25.27;13.43;;;;;;;;;;4780198;29;170309;-74
2021/01/05 00:29:22;;;;;;;38.70;14.53;;;;;;;;;;4778968;29;170559;-73
2021/01/05 00:31:49;;;;;;;34.40;15.77;;;;;;;;;;4778100;29;170486;-74
2021/01/05 00:34:16;;;;;;;27.90;13.87;;;;;;;;;;4780129;29;169239;-73
2021/01/05 00:36:43;;;;;;;21.37;12.10;;;;;;;;;;4774016;29;169832;-73
2021/01/05 00:39:09;;;;;;;32.67;13.23;;;;;;;;;;4774943;29;172992;-71
2021/01/05 00:41:36;;;;;;;28.13;13.43;;;;;;;;;;4778753;29;170682;-71
2021/01/05 00:44:03;;;;;;;30.77;13.47;;;;;;;;;;4773823;29;169621;-73
2021/01/05 00:46:29;;;;;;;31.90;13.97;;;;;;;;;;4788713;28;171436;-71
2021/01/05 00:48:56;;;;;;;23.87;12.47;;;;;;;;;;4779092;28;170392;-74
2021/01/05 00:51:23;;;;;;;24.40;13.33;;;;;;;;;;4771826;29;172823;-72
2021/01/05 00:53:50;;;;;;;45.57;14.23;;;;;;;;;;4776265;29;171304;-76
2021/01/05 00:56:17;;;;;;;22.50;12.63;;;;;;;;;;4762317;29;173343;-75
2021/01/05 00:58:44;;;;;;;25.70;12.93;;;;;;;;;;4762044;29;172698;-75
2021/01/05 01:01:10;;;;;;;20.67;12.30;;;;;;;;;;4778599;29;169647;-69
2021/01/05 01:03:37;;;;;;;19.80;12.77;;;;;;;;;;4779471;29;169589;-72
2021/01/05 01:06:04;;;;;;;38.80;14.03;;;;;;;;;;4776556;29;174913;-74
2021/01/05 01:08:31;;;;;;;27.60;11.83;;;;;;;;;;4778001;29;172593;-73
2021/01/05 01:10:58;;;;;;;20.27;12.53;;;;;;;;;;4777908;29;172639;-72
2021/01/05 01:13:28;;;;;;;21.40;12.23;;;;;;;;;;4778650;28;170211;-73
2021/01/05 01:15:56;;;;;;;30.63;13.73;;;;;;;;;;4776180;29;173275;-73
2021/01/05 01:18:23;;;;;;;18.87;12.23;;;;;;;;;;4777283;29;173329;-72
2021/01/05 01:20:50;;;;;;;28.00;13.17;;;;;;;;;;4778088;29;171416;-72
2021/01/05 01:23:23;;;;;;;25.00;13.70;;;;;;;;;;4776497;29;171061;-75
2021/01/05 01:25:53;;;;;;;19.50;12.73;;;;;;;;;;4778700;28;170517;-73
2021/01/05 01:28:21;;;;;;;23.20;13.07;;;;;;;;;;4778621;29;173254;-74
2021/01/05 01:30:48;;;;;;;27.47;14.10;;;;;;;;;;4774461;29;170972;-75
2021/01/05 01:33:19;;;;;;;24.07;12.97;;;;;;;;;;4776772;29;171889;-75
2021/01/05 01:35:47;;;;;;;24.53;12.97;;;;;;;;;;4775900;29;173677;-75
2021/01/05 01:38:15;;;;;;;22.37;12.47;;;;;;;;;;4776938;29;173788;-73
2021/01/05 01:40:50;;;;;;;42.00;15.10;;;;;;;;;;4759786;29;171884;-72
2021/01/05 01:43:22;;;;;;;23.37;13.97;;;;;;;;;;4759449;29;172865;-75
2021/01/05 01:45:52;;;;;;;44.40;14.63;;;;;;;;;;4786569;28;173039;-76
2021/01/05 01:48:26;;;;;;;25.43;14.00;;;;;;;;;;4776383;29;172652;-76
2021/01/05 01:50:55;;;;;;;33.57;13.67;;;;;;;;;;4769577;29;169366;-71
2021/01/05 01:53:45;;;;;;;19.50;12.47;;;;;;;;;;4788386;28;171920;-73
2021/01/05 01:56:19;;;;;;;18.43;12.43;;;;;;;;;;4767880;29;175520;-72
2021/01/05 01:59:17;;;;;;;16.90;11.50;;;;;;;;;;4766356;29;173890;-75
2021/01/05 02:01:57;;;;;;;18.60;12.97;;;;;;;;;;4774231;29;171766;-76
2021/01/05 02:04:47;;;;;;;19.23;12.23;;;;;;;;;;4773896;29;172289;-72
2021/01/05 02:07:22;;;;;;;21.73;11.50;;;;;;;;;;4764626;29;173408;-74
2021/01/05 02:10:06;;;;;;;50.37;14.93;;;;;;;;;;4759877;29;173636;-72
2021/01/05 02:12:33;;;;;;;44.80;14.57;;;;;;;;;;4780212;28;173013;-72
2021/01/05 02:15:12;;;;;;;23.13;11.67;;;;;;;;;;4781355;29;172711;-72
2021/01/05 02:17:39;;;;;;;29.60;12.80;;;;;;;;;;4781316;29;173558;-75
2021/01/05 02:20:28;;;;;;;15.87;11.37;;;;;;;;;;4780515;29;173198;-71
2021/01/05 02:23:17;;;;;;;16.80;11.00;;;;;;;;;;4763863;29;171495;-73
2021/01/05 02:25:55;;;;;;;17.00;11.70;;;;;;;;;;4773444;29;171818;-73
2021/01/05 02:28:29;;;;;;;39.87;13.20;;;;;;;;;;4780921;29;172092;-74
2021/01/05 02:30:59;;;;;;;20.70;11.80;;;;;;;;;;4777624;29;172578;-74
2021/01/05 02:33:50;;;;;;;17.50;10.63;;;;;;;;;;4773575;29;172681;-73
2021/01/05 02:36:33;;;;;;;16.03;10.90;;;;;;;;;;4786542;28;170739;-71
2021/01/05 02:39:33;;;;;;;19.60;10.83;;;;;;;;;;4781052;29;169212;-75
2021/01/05 02:42:27;;;;;;;14.57;10.53;;;;;;;;;;4764106;29;169520;-71
2021/01/05 02:45:12;;;;;;;14.10;9.80;;;;;;;;;;4773336;29;170408;-74
2021/01/05 02:48:07;;;;;;;17.23;11.27;;;;;;;;;;4775875;29;168550;-77
2021/01/05 02:51:23;;;;;;;12.67;9.73;;;;;;;;;;4770036;29;171765;-73
2021/01/05 02:54:21;;;;;;;24.87;12.20;;;;;;;;;;4771740;29;168982;-72
2021/01/05 02:57:22;;;;;;;15.03;10.50;;;;;;;;;;4771339;29;169634;-70
2021/01/05 03:00:26;;;;;;;15.37;10.63;;;;;;;;;;4776711;29;170157;-75
2021/01/05 03:03:26;;;;;;;18.60;10.77;;;;;;;;;;4780310;29;169170;-75
2021/01/05 03:06:17;;;;;;;24.53;11.93;;;;;;;;;;4779234;29;169192;-76
2021/01/05 03:09:10;;;;;;;18.53;11.10;;;;;;;;;;4779128;29;171586;-76
2021/01/05 03:12:19;;;;;;;26.80;11.53;;;;;;;;;;4782246;29;169036;-71
2021/01/05 03:15:09;;;;;;;17.07;10.97;;;;;;;;;;4786393;28;169925;-72
2021/01/05 03:17:58;;;;;;;16.83;10.37;;;;;;;;;;4779502;29;171372;-72
2021/01/05 03:20:47;;;;;;;20.20;10.70;;;;;;;;;;4778153;29;170099;-75
2021/01/05 03:23:33;;;;;;;21.27;11.23;;;;;;;;;;4778184;29;169959;-73
2021/01/05 03:26:26;;;;;;;16.33;10.13;;;;;;;;;;4788089;28;169571;-74
2021/01/05 03:29:13;;;;;;;23.37;10.90;;;;;;;;;;4768422;29;169576;-76
2021/01/05 03:32:04;;;;;;;15.70;10.80;;;;;;;;;;4777498;29;169628;-73
2021/01/05 03:34:49;;;;;;;19.87;10.87;;;;;;;;;;4779056;29;169392;-72
2021/01/05 03:37:34;;;;;;;26.57;12.10;;;;;;;;;;4761204;29;169063;-75
2021/01/05 03:40:19;;;;;;;13.10;9.83;;;;;;;;;;4762080;29;169584;-72
2021/01/05 03:43:04;;;;;;;15.63;10.23;;;;;;;;;;4772790;29;169422;-73
2021/01/05 03:45:49;;;;;;;28.77;10.97;;;;;;;;;;4774660;29;169939;-74
2021/01/05 03:48:35;;;;;;;18.67;11.87;;;;;;;;;;4775181;29;171227;-74
2021/01/05 03:51:20;;;;;;;20.63;10.07;;;;;;;;;;4775488;29;169693;-76
2021/01/05 03:54:05;;;;;;;17.97;9.63;;;;;;;;;;4775497;29;169305;-76
2021/01/05 03:56:50;;;;;;;30.53;11.43;;;;;;;;;;4774421;28;169673;-71
2021/01/05 03:59:49;;;;;;;25.37;11.23;;;;;;;;;;4776334;28;170982;-74
2021/01/05 04:02:35;;;;;;;21.33;10.90;;;;;;;;;;4777295;29;170537;-75
2021/01/05 04:05:01;;;;;;;19.43;11.47;;;;;;;;;;4780266;29;169316;-73
2021/01/05 04:07:28;;;;;;;26.27;11.80;;;;;;;;;;4780737;29;169900;-74
2021/01/05 04:09:55;;;;;;;16.97;11.20;;;;;;;;;;4780377;29;170286;-75
2021/01/05 04:12:22;;;;;;;16.07;10.20;;;;;;;;;;4777068;29;170522;-74
2021/01/05 04:14:49;;;;;;;22.27;11.70;;;;;;;;;;4779184;29;170897;-74
2021/01/05 04:17:15;;;;;;;20.50;12.37;;;;;;;;;;4776860;29;169293;-74
2021/01/05 04:19:42;;;;;;;15.00;10.77;;;;;;;;;;4776780;29;171597;-73
2021/01/05 04:22:08;;;;;;;19.07;10.83;;;;;;;;;;4778701;29;171040;-72
2021/01/05 04:24:35;;;;;;;32.27;12.70;;;;;;;;;;4777364;29;171029;-76
2021/01/05 04:27:02;;;;;;;20.47;11.60;;;;;;;;;;4780108;29;169172;-74
2021/01/05 04:29:28;;;;;;;20.60;12.33;;;;;;;;;;4775712;29;169743;-72
2021/01/05 04:31:55;;;;;;;29.60;13.20;;;;;;;;;;4780070;29;169956;-75
2021/01/05 04:34:22;;;;;;;23.53;12.83;;;;;;;;;;4776516;28;171838;-75
2021/01/05 04:36:48;;;;;;;24.50;12.90;;;;;;;;;;4779141;29;170239;-74
2021/01/05 04:39:17;;;;;;;31.17;13.87;;;;;;;;;;4775605;29;171085;-74
2021/01/05 04:41:48;;;;;;;27.57;13.33;;;;;;;;;;4775172;29;170106;-71
2021/01/05 04:44:15;;;;;;;26.10;12.43;;;;;;;;;;4777301;29;170157;-73
2021/01/05 04:46:51;;;;;;;20.27;12.73;;;;;;;;;;4778850;29;169774;-77
2021/01/05 04:49:47;;;;;;;21.00;12.37;;;;;;;;;;4775025;29;169621;-75
2021/01/05 04:52:16;;;;;;;20.70;11.67;;;;;;;;;;4779936;29;170639;-75
2021/01/05 04:54:51;;;;;;;18.23;11.83;;;;;;;;;;4778403;29;170335;-73
2021/01/05 04:57:18;;;;;;;31.53;14.93;;;;;;;;;;4780552;29;169095;-75
2021/01/05 04:59:49;;;;;;;57.43;16.53;;;;;;;;;;4778550;29;169689;-71
2021/01/05 05:02:30;;;;;;;26.10;13.20;;;;;;;;;;4779149;29;169820;-73
2021/01/05 05:05:05;;;;;;;29.07;13.60;;;;;;;;;;4778228;29;170811;-72
2021/01/05 05:07:32;;;;;;;32.87;14.47;;;;;;;;;;4779052;29;169907;-71
2021/01/05 05:10:06;;;;;;;27.67;12.80;;;;;;;;;;4779059;29;170336;-75
2021/01/05 05:12:38;;;;;;;23.43;11.27;;;;;;;;;;4776081;29;169853;-74
2021/01/05 05:15:05;;;;;;;21.57;13.27;;;;;;;;;;4776729;28;169220;-74
2021/01/05 05:17:50;;;;;;;33.00;13.77;;;;;;;;;;4780087;29;169097;-72
2021/01/05 05:20:19;;;;;;;18.83;12.00;;;;;;;;;;4756749;29;179914;-75
2021/01/05 05:22:53;;;;;;;23.73;12.57;;;;;;;;;;4757301;29;178282;-71
2021/01/05 05:25:30;;;;;;;26.90;13.37;;;;;;;;;;4775272;29;177953;-75
2021/01/05 05:28:03;;;;;;;26.63;13.17;;;;;;;;;;4775668;29;177797;-76
2021/01/05 05:30:37;;;;;;;18.00;11.20;;;;;;;;;;4773156;29;184889;-74
2021/01/05 05:33:10;;;;;;;50.97;14.03;;;;;;;;;;4774613;29;182011;-77
2021/01/05 05:35:55;;;;;;;35.57;13.00;;;;;;;;;;4774735;29;178044;-72
2021/01/05 05:38:40;;;;;;;30.73;13.87;;;;;;;;;;4772308;29;178606;-78
2021/01/05 05:41:13;;;;;;;47.20;14.70;;;;;;;;;;4774058;29;179297;-76
2021/01/05 05:43:49;;;;;;;47.73;15.57;;;;;;;;;;4772828;29;179403;-77
2021/01/05 05:46:20;;;;;;;27.80;12.77;;;;;;;;;;4773778;29;178502;-72
2021/01/05 05:48:50;;;;;;;22.63;12.23;;;;;;;;;;4776370;29;176266;-71
2021/01/05 05:51:23;;;;;;;23.27;11.93;;;;;;;;;;4773352;29;179282;-71
2021/01/05 05:53:55;;;;;;;31.27;13.53;;;;;;;;;;4773344;29;179273;-76
2021/01/05 05:56:32;;;;;;;25.17;13.20;;;;;;;;;;4770664;29;182021;-76
2021/01/05 05:58:59;;;;;;;32.97;14.03;;;;;;;;;;4760522;29;177948;-76
2021/01/05 06:01:30;;;;;;;28.93;13.60;;;;;;;;;;4770077;29;181973;-76
2021/01/05 06:04:00;;;;;;;44.03;14.73;;;;;;;;;;4774972;29;181602;-77
2021/01/05 06:06:27;;;;;;;31.27;14.00;;;;;;;;;;4773827;29;178127;-75
2021/01/05 06:08:54;;;;;;;28.40;13.97;;;;;;;;;;4774947;29;177925;-76
2021/01/05 06:11:26;;;;;;;32.50;13.77;;;;;;;;;;4757043;29;182143;-72
2021/01/05 06:13:52;;;;;;;23.37;12.57;;;;;;;;;;4773323;29;177618;-75
2021/01/05 06:16:19;;;;;;;58.67;15.87;;;;;;;;;;4772301;29;178017;-75
2021/01/05 06:18:46;;;;;;;44.13;14.37;;;;;;;;;;4773740;29;178409;-75
2021/01/05 06:21:12;;;;;;;21.57;12.60;;;;;;;;;;4771680;29;182609;-73
2021/01/05 06:23:39;;;;;;;27.47;11.83;;;;;;;;;;4774010;29;182205;-72
2021/01/05 06:26:06;;;;;;;30.87;13.37;;;;;;;;;;4774362;29;179639;-72
2021/01/05 06:28:32;;;;;;;56.30;15.63;;;;;;;;;;4774564;29;178422;-75
2021/01/05 06:30:59;;;;;;;29.53;12.43;;;;;;;;;;4773382;29;178834;-76
2021/01/05 06:33:25;;;;;;;41.87;13.23;;;;;;;;;;4773238;29;178803;-76
2021/01/05 06:35:54;;;;;;;19.43;11.07;;;;;;;;;;4772222;29;178085;-74
2021/01/05 06:38:21;;;;;;;40.47;12.53;;;;;;;;;;4774537;29;176484;-74
2021/01/05 06:40:47;;;;;;;38.17;13.20;;;;;;;;;;4772722;29;179143;-75
2021/01/05 06:43:14;;;;;;;24.43;11.97;;;;;;;;;;4772718;29;180554;-77
2021/01/05 06:45:41;;;;;;;35.87;12.70;;;;;;;;;;4771096;29;182803;-73
2021/01/05 06:48:08;;;;;;;33.73;12.20;;;;;;;;;;4762308;29;178392;-73
2021/01/05 06:50:34;;;;;;;32.03;11.77;;;;;;;;;;4767896;29;179287;-75
2021/01/05 06:53:01;;;;;;;31.43;12.27;;;;;;;;;;4772227;29;180796;-76
2021/01/05 06:55:28;;;;;;;24.43;11.80;;;;;;;;;;4772933;29;178376;-75
2021/01/05 06:57:54;;;;;;;41.73;13.87;;;;;;;;;;4775248;29;178359;-77
2021/01/05 07:00:23;;;;;;;46.73;14.13;;;;;;;;;;4768729;28;180116;-70
2021/01/05 07:02:50;;;;;;;22.97;11.80;;;;;;;;;;4759240;29;181385;-73
2021/01/05 07:05:17;;;;;;;19.23;12.00;;;;;;;;;;4775056;29;178697;-75
2021/01/05 07:07:44;;;;;;;26.20;11.83;;;;;;;;;;4777677;29;178333;-76
2021/01/05 07:10:12;;;;;;;37.27;13.23;;;;;;;;;;4774959;29;182401;-74
2021/01/05 07:12:39;;;;;;;26.53;12.43;;;;;;;;;;4775355;29;181224;-75
2021/01/05 07:15:07;;;;;;;18.90;11.87;;;;;;;;;;4776622;29;178767;-70
2021/01/05 07:17:34;;;;;;;65.30;15.43;;;;;;;;;;4776156;29;178927;-76
2021/01/05 07:20:00;;;;;;;58.50;14.80;;;;;;;;;;4772112;29;181241;-76
2021/01/05 07:22:27;;;;;;;42.27;13.90;;;;;;;;;;4767886;29;179736;-76
2021/01/05 07:24:54;;;;;;;43.53;14.33;;;;;;;;;;4772697;28;178711;-76
2021/01/05 07:27:21;;;;;;;38.20;13.83;;;;;;;;;;4774510;28;177558;-72
2021/01/05 07:29:48;;;;;;;53.97;15.10;;;;;;;;;;4767863;29;179227;-76
2021/01/05 07:32:15;;;;;;;28.93;12.83;;;;;;;;;;4763107;29;179224;-71
2021/01/05 07:34:41;;;;;;;41.07;15.53;;;;;;;;;;4764532;29;183291;-77
2021/01/05 07:37:12;;;;;;;27.13;12.77;;;;;;;;;;4771144;28;178750;-72
2021/01/05 07:39:39;;;;;;;34.07;12.53;;;;;;;;;;4771456;29;179581;-74
2021/01/05 07:42:15;;;;;;;74.60;16.40;;;;;;;;;;4773594;29;178765;-74
2021/01/05 07:44:42;;;;;;;39.13;13.37;;;;;;;;;;4766279;29;178610;-73
2021/01/05 07:47:09;;;;;;;26.70;12.13;;;;;;;;;;4774426;29;178526;-74
2021/01/05 07:49:36;;;;;;;43.10;14.50;;;;;;;;;;4759561;29;180332;-73
2021/01/05 07:52:15;;;;;;;28.30;13.67;;;;;;;;;;4763127;29;178736;-77
2021/01/05 07:54:42;;;;;;;68.60;17.10;;;;;;;;;;4767666;29;177900;-75
2021/01/05 07:57:08;;;;;;;89.73;17.93;;;;;;;;;;4771727;29;178165;-75
2021/01/05 07:59:35;;;;;;;88.57;16.00;;;;;;;;;;4760900;29;182650;-76
2021/01/05 08:02:02;;;;;;;56.40;14.00;;;;;;;;;;4773162;29;180347;-76
2021/01/05 08:04:30;;;;;;;55.77;15.93;;;;;;;;;;4774174;29;179085;-75
2021/01/05 08:06:58;;;;;;;51.40;14.07;;;;;;;;;;4774055;29;177909;-75
2021/01/05 08:09:25;;;;;;;38.70;14.00;;;;;;;;;;4762209;29;179420;-76
2021/01/05 08:11:51;;;;;;;39.30;13.27;;;;;;;;;;4754541;29;178464;-74
2021/01/05 08:14:18;;;;;;;32.27;12.63;;;;;;;;;;4765510;29;178627;-74
2021/01/05 08:16:48;;;;;;;24.03;11.47;;;;;;;;;;4773618;29;176888;-73
2021/01/05 08:19:15;;;;;;;27.27;12.17;;;;;;;;;;4764840;29;180644;-75
2021/01/05 08:21:42;;;;;;;26.60;12.00;;;;;;;;;;4773313;29;178465;-72
2021/01/05 08:24:09;;;;;;;24.07;11.77;;;;;;;;;;4758665;29;181744;-73
2021/01/05 08:26:35;;;;;;;20.53;11.27;;;;;;;;;;4763717;29;179409;-73
2021/01/05 08:29:02;;;;;;;30.07;13.23;;;;;;;;;;4773647;29;179269;-73
2021/01/05 08:31:34;;;;;;;24.53;12.23;;;;;;;;;;4773658;29;178458;-74
2021/01/05 08:34:00;;;;;;;23.17;12.43;;;;;;;;;;4754777;29;178432;-74
2021/01/05 08:36:31;;;;;;;24.13;12.23;;;;;;;;;;4755324;29;179351;-74
2021/01/05 08:38:58;;;;;;;19.13;11.53;;;;;;;;;;4754848;29;178547;-72
2021/01/05 08:41:27;;;;;;;21.07;13.17;;;;;;;;;;4755063;29;178054;-74
2021/01/05 08:43:55;;;;;;;20.47;12.43;;;;;;;;;;4756778;29;177869;-74
2021/01/05 08:46:24;;;;;;;22.23;12.10;;;;;;;;;;4773606;29;178006;-74
2021/01/05 08:48:51;;;;;;;23.27;12.97;;;;;;;;;;4768535;29;181791;-73
2021/01/05 08:51:18;;;;;;;20.30;11.70;;;;;;;;;;4771712;29;181233;-76
2021/01/05 08:53:49;;;;;;;26.70;13.23;;;;;;;;;;4768965;29;178812;-74
2021/01/05 08:56:17;;;;;;;32.03;14.07;;;;;;;;;;4770865;29;178389;-74
2021/01/05 08:58:45;;;;;;;22.23;12.97;;;;;;;;;;4772867;28;179164;-73
2021/01/05 09:01:11;;;;;;;22.10;12.17;;;;;;;;;;4757943;29;179731;-74
2021/01/05 09:03:38;;;;;;;28.17;14.53;;;;;;;;;;4767136;29;178868;-72
2021/01/05 09:06:06;;;;;;;26.93;13.67;;;;;;;;;;4771098;29;176487;-74
2021/01/05 09:08:33;;;;;;;30.77;14.27;;;;;;;;;;4772242;29;179794;-76
2021/01/05 09:11:00;;;;;;;28.40;14.43;;;;;;;;;;4762066;29;178844;-74
2021/01/05 09:13:28;;;;;;;29.33;14.10;;;;;;;;;;4769663;29;183767;-72
2021/01/05 09:15:56;;;;;;;26.13;13.30;;;;;;;;;;4773262;29;178621;-75
2021/01/05 09:18:24;;;;;;;23.43;13.03;;;;;;;;;;4771411;29;178946;-76
2021/01/05 09:20:55;;;;;;;22.33;13.20;;;;;;;;;;4770960;29;177994;-75
2021/01/05 09:23:23;;;;;;;26.60;13.60;;;;;;;;;;4770043;28;180951;-75
2021/01/05 09:25:54;;;;;;;24.83;12.43;;;;;;;;;;4772113;28;178087;-74
2021/01/05 09:28:22;;;;;;;22.60;12.50;;;;;;;;;;4763052;29;179730;-68
2021/01/05 09:30:49;;;;;;;24.23;12.97;;;;;;;;;;4761781;28;178330;-70
2021/01/05 09:33:16;;;;;;;20.97;12.40;;;;;;;;;;4770915;29;177962;-70
2021/01/05 09:35:43;;;;;;;26.60;13.93;;;;;;;;;;4771137;29;178011;-75
2021/01/05 09:38:13;;;;;;;24.43;13.63;;;;;;;;;;4769756;29;182608;-80
2021/01/05 09:40:44;;;;;;;37.70;14.07;;;;;;;;;;4772828;29;178501;-74
